Flight Track Log - Related Links

Times and Time Zones

All times are in EST time to prevent confusion due to time zone crossing. See the N88JH flight status page for this flight to view local times or setup timezone preferences in your user account.

Time Position Orientation Groundspeed Altitude Reporting Facility
EST Latitude Longitude Course Direction KTS MPH feet Rate Location/Type
Fri 05:33:03 PM 39.8667 -104.7833 312° West 169 194 7,800  Level Denver TRACON
Fri 05:34:03 PM 39.9000 -104.8333 311° West 174 200 9,400 1,650 Climbing Denver TRACON
Fri 05:35:03 PM 39.9167 -104.8833 294° West 172 198 11,100 1,650 Climbing Denver TRACON
Fri 05:36:03 PM 39.9500 -104.9333 311° West 194 223 12,700 1,800 Climbing Denver TRACON
Fri 05:37:03 PM 40.0167 -104.9333 360° North 202 232 14,700 1,970 Climbing Denver TRACON
Fri 05:38:00 PM 40.2730 -105.2828 312° West  Level Estimated
Fri 05:38:17 PM 40.0781 -104.9244 North 204 235 17,100  Level Denver Center
Fri 05:39:19 PM 40.1367 -104.9131 North 211 243 19,100 1,597 Climbing Denver Center
Fri 05:40:21 PM 40.1878 -104.9036 North 219 252 20,400 1,500 Climbing Denver Center
Fri 05:41:23 PM 40.2647 -104.8897 North 222 255 22,200 1,500 Climbing Denver Center
Fri 05:42:25 PM 40.3208 -104.9133 342° North 211 243 23,500 1,161 Climbing Denver Center
Fri 05:43:27 PM 40.3772 -104.9339 344° North 220 253 24,600 1,210 Climbing Denver Center
Fri 05:44:29 PM 40.4369 -104.9536 346° North 221 254 26,000 1,306 Climbing Denver Center
Fri 05:45:31 PM 40.4958 -104.9739 345° North 219 252 27,300 968 Climbing Denver Center
Fri 05:48:37 PM 40.6886 -105.0428 345° North 226 260 30,000 653 Climbing Denver Center
Fri 05:49:39 PM 40.7606 -105.0664 346° North 267 307 30,000 -44 Level Denver Center
Fri 05:50:53 PM 40.8183 -105.1208 325° Northwest 257 296 29,900 -44 Descending Denver Center
Fri 05:51:55 PM 40.8919 -105.2114 317° Northwest 258 297 29,900 48 Level Denver Center
Fri 05:52:57 PM 40.9469 -105.2728 320° Northwest 259 298 30,000 48 Climbing Denver Center
Fri 05:53:59 PM 40.9892 -105.3219 319° Northwest 255 293 30,000  Level Denver Center
Fri 05:55:01 PM 41.0569 -105.3981 320° Northwest 261 300 30,000  Level Denver Center
Fri 05:56:03 PM 41.1189 -105.4672 320° Northwest 261 300 30,000  Level Denver Center
Fri 05:57:05 PM 41.1714 -105.5281 319° Northwest 261 300 30,000  Level Denver Center
Fri 05:58:07 PM 41.2236 -105.5889 319° Northwest 261 300 30,000  Level Denver Center
Fri 05:59:09 PM 41.2858 -105.6594 320° Northwest 264 304 30,000  Level Denver Center
Fri 06:00:11 PM 41.3375 -105.7200 319° Northwest 261 300 30,000  Level Denver Center
Fri 06:01:13 PM 41.3858 -105.8028 308° West 254 292 30,000  Level Denver Center
Fri 06:02:15 PM 41.4261 -105.8761 306° West 255 293 30,000  Level Denver Center
Fri 06:03:17 PM 41.4744 -105.9556 309° West 249 287 30,000  Level Denver Center
Fri 06:04:19 PM 41.5156 -106.0269 308° West 252 290 30,000  Level Denver Center
Fri 06:05:21 PM 41.5633 -106.1117 307° West 255 293 30,000  Level Denver Center
Fri 06:06:23 PM 41.6053 -106.1831 308° West 255 293 30,000  Level Denver Center
Fri 06:07:25 PM 41.6528 -106.2656 308° West 252 290 30,000  Level Denver Center
Fri 06:08:27 PM 41.6928 -106.3369 307° West 251 289 30,000  Level Denver Center
Fri 06:09:29 PM 41.7328 -106.4075 307° West 250 288 30,000  Level Denver Center
Fri 06:10:31 PM 41.7794 -106.4892 307° West 247 284 30,000  Level Denver Center
Fri 06:11:33 PM 41.8233 -106.5658 308° West 248 285 30,000  Level Denver Center
Fri 06:12:35 PM 41.8622 -106.6358 307° West 246 283 30,000  Level Denver Center
Fri 06:13:37 PM 41.9064 -106.7153 307° West 240 276 30,000  Level Denver Center
Fri 06:14:39 PM 41.9461 -106.7850 307° West 243 280 30,000  Level Denver Center
Fri 06:15:41 PM 41.9917 -106.8658 307° West 243 280 30,000  Level Denver Center
Fri 06:16:43 PM 42.0294 -106.9367 306° West 244 281 30,000  Level Denver Center
Fri 06:17:45 PM 42.0775 -107.0194 308° West 249 287 30,000  Level Denver Center
Fri 06:18:47 PM 42.1181 -107.0914 307° West 250 288 30,000  Level Denver Center
Fri 06:19:49 PM 42.1650 -107.1764 307° West 254 292 30,000  Level Denver Center
Fri 06:20:51 PM 42.1964 -107.2358 305° West 248 285 30,000  Level Denver Center
Fri 06:21:53 PM 42.2517 -107.3347 307° West 258 297 30,000  Level Denver Center
Fri 06:22:55 PM 42.2922 -107.4069 307° West 256 295 30,000  Level Denver Center
Fri 06:23:57 PM 42.3406 -107.4953 307° West 262 302 30,000  Level Denver Center
Fri 06:24:59 PM 42.3817 -107.5703 307° West 260 299 30,000  Level Denver Center
Fri 06:26:01 PM 42.4308 -107.6603 307° West 267 307 30,000  Level Denver Center
Fri 06:27:02 PM 42.4667 -107.7247 307° West 267 307 30,000  Level Denver Center
Fri 06:27:32 PM 42.4947 -107.7786 305° West 271 312 30,000  Level Salt Lake Center
Fri 06:28:33 PM 42.5378 -107.8561 307° West 270 311 30,000  Level Salt Lake Center
Fri 06:29:35 PM 42.5856 -107.9478 305° West 269 310 30,000  Level Salt Lake Center
Fri 06:30:37 PM 42.6281 -108.0267 306° West 269 310 30,000  Level Salt Lake Center
Fri 06:31:38 PM 42.6789 -108.1206 306° West 276 318 30,000  Level Salt Lake Center
Fri 06:32:40 PM 42.7214 -108.2008 306° West 275 316 30,000  Level Salt Lake Center
Fri 06:33:42 PM 42.7719 -108.2942 306° West 275 316 30,000  Level Salt Lake Center
Fri 06:34:43 PM 42.8142 -108.3747 306° West 274 315 30,000  Level Salt Lake Center
Fri 06:35:45 PM 42.8639 -108.4675 306° West 273 314 30,000  Level Salt Lake Center
Fri 06:36:47 PM 42.9061 -108.5464 306° West 269 310 30,000  Level Salt Lake Center
Fri 06:37:49 PM 42.9481 -108.6272 305° West 272 313 30,000  Level Salt Lake Center
Fri 06:38:50 PM 42.9981 -108.7189 307° West 264 304 30,000  Level Salt Lake Center
Fri 06:39:52 PM 43.0444 -108.8086 305° West 288 331 30,000  Level Salt Lake Center
Fri 06:40:54 PM 43.0875 -108.8917 305° West 274 315 30,000  Level Salt Lake Center
Fri 06:41:55 PM 43.1308 -108.9739 306° West 268 308 30,000  Level Salt Lake Center
Fri 06:42:57 PM 43.1742 -109.0564 306° West 267 307 30,000  Level Salt Lake Center
Fri 06:43:59 PM 43.2175 -109.1406 305° West 270 311 30,000 -195 Level Salt Lake Center
Fri 06:45:00 PM 43.2628 -109.2256 306° West 276 318 29,600 -780 Descending Salt Lake Center
Fri 06:46:02 PM 43.3158 -109.3281 305° West 275 316 28,400 -1,161 Descending Salt Lake Center
Fri 06:47:04 PM 43.3586 -109.4122 305° West 272 313 27,200 -1,122 Descending Salt Lake Center
Fri 06:48:05 PM 43.4028 -109.4964 306° West 272 313 26,100 -1,122 Descending Salt Lake Center
Fri 06:49:07 PM 43.4450 -109.5792 305° West 268 308 24,900 -1,161 Descending Salt Lake Center
Fri 06:50:09 PM 43.4875 -109.6622 305° West 268 308 23,700 -1,220 Descending Salt Lake Center
Fri 06:51:10 PM 43.5314 -109.7458 306° West 265 305 22,400 -1,366 Descending Salt Lake Center
Fri 06:52:12 PM 43.5781 -109.8417 304° West 269 310 20,900 -1,403 Descending Salt Lake Center
Fri 06:53:14 PM 43.6247 -109.9300 306° West 273 314 19,500 -1,268 Descending Salt Lake Center
Fri 06:54:15 PM 43.6683 -110.0153 305° West 275 316 18,300 -1,268 Descending Salt Lake Center
Fri 06:55:17 PM 43.7108 -110.1000 305° West 267 307 16,900 -823 Descending Salt Lake Center
Fri 06:56:19 PM 43.7508 -110.1783 305° West 254 292 16,600 -488 Descending Salt Lake Center
Fri 06:57:20 PM 43.7869 -110.2522 304° West 235 270 15,900 -829 Descending Salt Lake Center
Fri 06:58:22 PM 43.8181 -110.3164 304° West 210 242 14,900 -1,065 Descending Salt Lake Center
Fri 06:59:24 PM 43.8269 -110.4008 278° West 208 239 13,700 -1,171 Descending Salt Lake Center
Fri 07:00:25 PM 43.8156 -110.4769 258° West 197 227 12,500 -1,122 Descending Salt Lake Center
Fri 07:01:27 PM 43.8086 -110.5467 262° West 189 217 11,400 -1,113 Descending Salt Lake Center
Fri 07:02:29 PM 43.7872 -110.6081 244° Southwest 183 211 10,200 -1,024 Descending Salt Lake Center
Fri 07:03:30 PM 43.7519 -110.6533 223° Southwest 178 205 9,300 -829 Descending Salt Lake Center
Fri 07:04:32 PM 43.7144 -110.6844 211° Southwest 166 191 8,500 -726 Descending Salt Lake Center
Fri 07:05:34 PM 43.6767 -110.7039 200° South 153 176 7,800 -732 Descending Salt Lake Center
Fri 07:06:35 PM 43.6408 -110.7217 200° South 144 166 7,000 -683 Descending Salt Lake Center
Fri 07:07:37 PM 43.6133 -110.7350 199° South 124 143 6,400 -581 Descending Salt Lake Center

Login

Don't have an account? Register now (free) for customized features, flight alerts, and more!